Paris Beauvais Tillé Airport

LFOB · Nord-Pas-de-Calais-Picardie, France

3 octobre 2022

Temps Code Temps Temp. Vue Base cloud Vent METAR/SPECI
08:30
L
8 °C 250 m - Var Var 2 kt METAR LFOB 030630Z AUTO VRB02KT 0250 R30/0325N R12/0300N FG VV/// 08/08 Q1027 BECMG 9999 NSW BKN003
08:00
L
7 °C 350 m - Var Var 3 kt METAR LFOB 030600Z AUTO VRB03KT 0350 R30/0500N R12/0450N FG VV/// 07/07 Q1027 NOSIG
07:30
L
7 °C 500 m - 310° 310° 2 kt METAR LFOB 030530Z AUTO 31002KT 0600 0500 R30/0650D R12/0750N FG VV/// 07/07 Q1027 NOSIG
07:00
L
6 °C 600 m - 300° 300° 2 kt METAR LFOB 030500Z AUTO 30002KT 0700 0600 R30/0900N R12/0700D FG VV/// 06/06 Q1027 BECMG 1200 BR OVC002
06:30
L
7 °C 400 m - 290° 290° 2 kt METAR LFOB 030430Z AUTO 29002KT 0550 0400 R30/0550U R12/0800U FG VV/// 07/06 Q1027 BECMG 1200 BR OVC002
06:00
L
7 °C 350 m - 310° 310° 3 kt METAR LFOB 030400Z AUTO 31003KT 0500 0350 R30/0450D R12/1300U FG VV/// 07/07 Q1027 TEMPO 0200 FG
05:30
L
7 °C 350 m - 300° 300° 3 kt METAR LFOB 030330Z AUTO 30003KT 0400 0350 R30/0550U R12/0500D FG VV/// 07/07 Q1027 TEMPO 0200 FG
05:00
L
7 °C 250 m - 320° 320° 3 kt METAR LFOB 030300Z AUTO 32003KT 0400 0250 R30/0325N R12/0500D FG VV/// 07/07 Q1027 TEMPO 0200 FG
04:30
L
7 °C 900 m - Var Var 2 kt METAR LFOB 030230Z AUTO VRB02KT 1000 0900 R30/1300U R12/1100U BCFG VV/// 07/07 Q1027 TEMPO 0200 FG
04:00
L
6 °C 650 m - 310° 310° 2 kt METAR LFOB 030200Z AUTO 31002KT 1000 0650 R30/2200U R12/0900U BCFG VV/// 06/06 Q1027 TEMPO 0200 FG
03:30
L
6 °C 500 m - 290° 290° 2 kt METAR LFOB 030130Z AUTO 29002KT 0750 0500 R30/1100D R12/0600D FG VV/// 06/05 Q1027 TEMPO 0200 FG
03:00
L
7 °C 600 m - Var Var 2 kt METAR LFOB 030100Z AUTO VRB02KT 0700 0600 R30/0900U R12/0900N FG VV/// 07/06 Q1027 TEMPO 0200 FG
02:30
L
7 °C 900 m - 270° 270° 4 kt METAR LFOB 030030Z AUTO 27004KT 1000 0900 R30/1900U R12/1000U BCFG VV/// 07/07 Q1027 TEMPO 0200 FG
02:00
L
7 °C 750 m - Var Var 2 kt METAR LFOB 030000Z AUTO VRB02KT 0900 0750 R30/1400U R12/0900D FG VV/// 07/06 Q1027 TEMPO 0200 FG
01:30
L
8 °C 450 m - 280° 280° 3 kt METAR LFOB 022330Z AUTO 28003KT 0500 0450 R30/0900U R12/0600U FG VV/// 08/07 Q1027 TEMPO 0200 FG
01:00
L
9 °C 450 m - 280° 280° 2 kt METAR LFOB 022300Z AUTO 28002KT 0600 0450 R30/0550D R12/0750N FG VV/// 09/09 Q1027 TEMPO 0200 FG
00:30
L
9 °C 900 m - 290° 290° 4 kt METAR LFOB 022230Z AUTO 29004KT 1200 0900 R30/2700U R12/1200D BCFG VV/// 09/09 Q1027 TEMPO 0200 FG
00:00
L
8 °C 750 m - 320° 320° 3 kt METAR LFOB 022200Z AUTO 32003KT 1000 0750 R30/1300D R12/1800U BCFG VV/// 08/08 Q1027 TEMPO 0200 FG OVC002

2 octobre 2022

Temps Code Temps Temp. Vue Base cloud Vent METAR/SPECI
23:30
L
7 °C 500 m - 320° 320° 5 kt METAR LFOB 022130Z AUTO 32005KT 0600 0500 R30/0650D R12/0600D FG VV/// 07/07 Q1026 TEMPO 0200 FG OVC002
23:00
L
8 °C 350 m - 300° 300° 3 kt METAR LFOB 022100Z AUTO 30003KT 0650 0350 R30/0500D R12/0900U FG VV/// 08/07 Q1026 BECMG 1200 BR OVC002
22:30
L
10 °C 1,3 km - Var Var 2 kt METAR LFOB 022030Z AUTO VRB02KT 7000 1300 R30/P5000 R12/P5000 NSC 10/09 Q1026 BECMG 1200 BR OVC002
22:00
L
10 °C 750 m - Var Var 3 kt METAR LFOB 022000Z AUTO VRB03KT 5000 0750 R30/2000D R12/P5000 BCFG NSC 10/09 Q1025 BECMG 1200 BR OVC002
21:30
V
11 °C 10 km+ - 340° 340° 3 kt METAR LFOB 021930Z AUTO 34003KT CAVOK 11/10 Q1025 BECMG 1200 BR OVC002
21:00
V
12 °C 10 km+ - Var Var 3 kt METAR LFOB 021900Z AUTO VRB03KT 9999 FEW047 12/11 Q1025 BECMG 1200 BR OVC002
20:30
V
13 °C 10 km+ 4.700 ft 360° 360° 3 kt METAR LFOB 021830Z AUTO 36003KT 9999 OVC047 13/11 Q1024 BECMG 1200 BR OVC002
20:00
V
13 °C 10 km+ 4.700 ft 360° 360° 4 kt METAR LFOB 021800Z AUTO 36004KT 9999 OVC047 13/11 Q1024 NOSIG
19:30
V
14 °C 10 km+ 4.700 ft 010° 010° 3 kt METAR LFOB 021730Z AUTO 01003KT 9999 OVC047 14/11 Q1024 NOSIG
19:00
V
14 °C 10 km+ 4.500 ft 010° 010° 4 kt METAR LFOB 021700Z AUTO 01004KT 9999 FEW011 OVC045 14/11 Q1023 NOSIG
18:30
M
14 °C 10 km+ 1.600 ft 010° 010° 4 kt METAR LFOB 021630Z AUTO 01004KT 9999 BKN016 OVC044 14/12 Q1023 NOSIG
18:00
M
14 °C 10 km+ 1.400 ft 360° 360° 6 kt METAR LFOB 021600Z AUTO 36006KT 9999 BKN014 OVC043 14/12 Q1023 BECMG OVC025
17:30
V
14 °C 10 km+ 4.400 ft 360° 360° 4 kt METAR LFOB 021530Z AUTO 36004KT 310V030 9999 SCT011 OVC044 14/12 Q1022 NOSIG
17:00
V
14 °C 10 km+ 4.400 ft 030° 030° 5 kt METAR LFOB 021500Z AUTO 03005KT 9999 SCT011 OVC044 14/11 Q1022 NOSIG
16:30
M
14 °C 10 km+ 1.000 ft Var Var 7 kt METAR LFOB 021430Z AUTO VRB07KT 9999 BKN010 BKN014 BKN029 14/12 Q1022 BECMG OVC025
16:00
V
13 °C 10 km+ 4.100 ft 040° 040° 7 kt METAR LFOB 021400Z AUTO 04007KT 9999 SCT009 BKN041 BKN048 13/12 Q1022 TEMPO 2500 RA OVC002 SCT020CB
15:30
I
13 °C 10 km+ 800 ft 040° 040° 9 kt METAR LFOB 021330Z AUTO 04009KT 9999 -RA BKN008/// BKN027/// BKN042/// ///TCU 13/12 Q1021 TEMPO 2500 RA OVC002 SCT020CB
15:00
I
13 °C 10 km+ 800 ft 040° 040° 11 kt METAR LFOB 021300Z AUTO 04011KT 9999 -RA BKN008/// BKN033/// BKN047/// //////CB 13/12 Q1021 TEMPO 2500 RA OVC002 SCT020CB
14:30
I
13 °C 2,4 km 600 ft 010° 010° 11 kt METAR LFOB 021230Z AUTO 01011KT 2400 -RA BR BKN006/// BKN010/// BKN016/// ///TCU 13/12 Q1021 TEMPO RA OVC002 SCT020CB
14:00
I
13 °C 2,8 km 600 ft 030° 030° 13 kt METAR LFOB 021200Z AUTO 03013KT 2800 RA BR BKN006/// BKN011/// OVC018/// ///CB 13/13 Q1020 TEMPO OVC002
13:30
I
13 °C 2,4 km 500 ft 040° 040° 12 kt METAR LFOB 021130Z AUTO 04012KT 2400 -RA BR BKN005/// BKN009/// BKN016/// //////TCU 13/13 Q1019 BECMG 8000 NSW OVC025
13:00
I
14 °C 2,7 km 600 ft 050° 050° 11 kt METAR LFOB 021100Z AUTO 05011KT 2700 RA BR BKN006/// OVC011/// //////TCU 14/13 Q1019 BECMG 8000 NSW OVC025
12:30
I
14 °C 4,5 km 500 ft 040° 040° 10 kt METAR LFOB 021030Z AUTO 04010KT 4500 -RA BR BKN005 BKN011 OVC016 14/13 Q1019 BECMG 8000 NSW OVC025
12:00
I
15 °C 3,9 km 500 ft 050° 050° 6 kt METAR LFOB 021000Z AUTO 05006KT 030V110 3900 -RA BR BKN005 OVC011 15/14 Q1019 TEMPO RA
11:30
I
15 °C 2,8 km 1.100 ft 070° 070° 4 kt METAR LFOB 020930Z AUTO 07004KT 020V120 2800 -RA BR SCT005 BKN011 OVC016 15/14 Q1019 TEMPO 3000 RA OVC002
11:00
I
15 °C 3,7 km 1.100 ft 050° 050° 7 kt METAR LFOB 020900Z AUTO 05007KT 3700 -RA BR OVC011 15/14 Q1019 TEMPO RA OVC002
10:30
I
15 °C 2,8 km 800 ft 340° 340° 10 kt METAR LFOB 020830Z AUTO 34010KT 230V030 2800 RA BR OVC008 15/14 Q1019 TEMPO 3000 RA OVC002
10:00
I
16 °C 10 km+ 800 ft 230° 230° 7 kt METAR LFOB 020800Z AUTO 23007KT 9999 BKN008 OVC012 16/15 Q1018 TEMPO 3000 RA OVC002
09:30
I
16 °C 2,6 km 900 ft 240° 240° 7 kt METAR LFOB 020730Z AUTO 24007KT 210V270 7000 2600 -DZ BKN009 OVC013 16/15 Q1018 TEMPO 3000 RA OVC002
09:00
M
16 °C 10 km+ 1.100 ft 240° 240° 6 kt METAR LFOB 020700Z AUTO 24006KT 210V270 9999 BKN011 BKN019 OVC026 16/15 Q1018 TEMPO 3000 RA OVC002
08:30
M
16 °C 10 km+ 1.300 ft 250° 250° 7 kt METAR LFOB 020630Z AUTO 25007KT 220V280 9999 BKN013 OVC021 16/15 Q1018 TEMPO 3000 RA OVC002
08:00
I
16 °C 10 km+ 900 ft 250° 250° 7 kt METAR LFOB 020600Z AUTO 25007KT 210V290 9999 BKN009 OVC013 16/15 Q1018 TEMPO 1500 RADZ BKN003 OVC013
07:30
I
15 °C 10 km+ 600 ft 250° 250° 3 kt METAR LFOB 020530Z AUTO 25003KT 210V280 9999 BKN006 OVC010 15/14 Q1018 TEMPO 1500 RADZ BKN003 OVC013
07:00
I
14 °C 6 km 500 ft Var Var 1 kt METAR LFOB 020500Z AUTO VRB01KT 6000 OVC005 14/13 Q1018 NOSIG
06:30
I
14 °C 7 km 500 ft Var Var 2 kt METAR LFOB 020430Z AUTO VRB02KT 7000 OVC005 14/13 Q1018 BECMG SCT030 BKN080
06:00
I
14 °C 3,5 km 600 ft 200° 200° 3 kt METAR LFOB 020400Z AUTO 20003KT 9999 3500 BKN006 BKN013 OVC020 14/13 Q1018 BECMG SCT030 BKN080
05:30
M
14 °C 10 km+ 1.600 ft 190° 190° 5 kt METAR LFOB 020330Z AUTO 19005KT 9999 FEW010 BKN016 BKN022 14/13 Q1018 NOSIG
05:00
M
14 °C 9 km 2.100 ft 210° 210° 4 kt METAR LFOB 020300Z AUTO 21004KT 9000 FEW013 BKN021 OVC035 14/13 Q1018 NOSIG
04:30
M
14 °C 10 km+ 2.700 ft 220° 220° 7 kt METAR LFOB 020230Z AUTO 22007KT 9999 -DZ FEW019 OVC027 14/13 Q1018 NOSIG
04:00
V
14 °C 10 km+ 3.200 ft 210° 210° 5 kt METAR LFOB 020200Z AUTO 21005KT 9999 FEW025 OVC032 14/13 Q1019 NOSIG
03:30
M
14 °C 10 km+ 2.900 ft 220° 220° 6 kt METAR LFOB 020130Z AUTO 22006KT 190V250 9999 SCT019 SCT024 BKN029 14/13 Q1018 NOSIG
03:00
M
15 °C 10 km+ 2.100 ft Var Var 3 kt METAR LFOB 020100Z AUTO VRB03KT 9999 BKN021 BKN028 OVC037 15/12 Q1019 NOSIG
02:30
V
15 °C 10 km+ 4.000 ft 240° 240° 5 kt METAR LFOB 020030Z AUTO 24005KT 210V270 9999 FEW021/// BKN040/// OVC048/// ///TCU 15/12 Q1019 BECMG SCT030 BKN080
02:00
V
15 °C 10 km+ 5.800 ft 240° 240° 6 kt METAR LFOB 020000Z AUTO 24006KT 9999 -RA FEW021 SCT046 BKN058 15/12 Q1019 NOSIG
01:30
V
15 °C 10 km+ 5.800 ft 240° 240° 5 kt METAR LFOB 012330Z AUTO 24005KT 210V270 9999 FEW045 BKN058 OVC074 15/12 Q1019 NOSIG
01:00
V
15 °C 10 km+ - 240° 240° 7 kt METAR LFOB 012300Z AUTO 24007KT CAVOK 15/12 Q1019 NOSIG
00:30
V
15 °C 10 km+ - 240° 240° 7 kt METAR LFOB 012230Z AUTO 24007KT CAVOK 15/12 Q1018 NOSIG
00:00
V
15 °C 10 km+ - 250° 250° 7 kt METAR LFOB 012200Z AUTO 25007KT CAVOK 15/11 Q1018 NOSIG

1 octobre 2022

Temps Code Temps Temp. Vue Base cloud Vent METAR/SPECI
23:30
V
15 °C 10 km+ - 240° 240° 7 kt METAR LFOB 012130Z AUTO 24007KT CAVOK 15/11 Q1018 NOSIG
23:00
V
15 °C 10 km+ - 240° 240° 6 kt METAR LFOB 012100Z AUTO 24006KT CAVOK 15/11 Q1018 NOSIG
22:30
V
15 °C 10 km+ - 250° 250° 7 kt METAR LFOB 012030Z AUTO 25007KT CAVOK 15/11 Q1017 NOSIG
22:00
V
15 °C 10 km+ - 240° 240° 8 kt METAR LFOB 012000Z AUTO 24008KT CAVOK 15/11 Q1017 NOSIG
21:30
V
15 °C 10 km+ - 240° 240° 8 kt METAR LFOB 011930Z AUTO 24008KT CAVOK 15/11 Q1017 NOSIG
21:00
V
16 °C 10 km+ - 250° 250° 6 kt METAR LFOB 011900Z AUTO 25006KT CAVOK 16/11 Q1016 NOSIG
20:30
V
16 °C 10 km+ - 260° 260° 11 kt METAR LFOB 011830Z AUTO 26011KT CAVOK 16/11 Q1016 NOSIG
20:00
V
17 °C 10 km+ - 260° 260° 10 kt METAR LFOB 011800Z AUTO 26010KT CAVOK 17/11 Q1016 NOSIG
19:30
V
17 °C 10 km+ - 260° 260° 11 kt METAR LFOB 011730Z AUTO 26011KT 9999 FEW037 17/11 Q1015 NOSIG
19:00
V
18 °C 10 km+ 3.900 ft 270° 270° 11 kt METAR LFOB 011700Z AUTO 27011KT 9999 BKN039 BKN046 18/11 Q1015 NOSIG
18:30
V
18 °C 10 km+ 5.600 ft 280° 280° 10 kt METAR LFOB 011630Z AUTO 28010KT 230V310 9999 SCT041 BKN056 BKN066 18/11 Q1014 NOSIG
18:00
V
18 °C 10 km+ - 280° 280° 10 kt METAR LFOB 011600Z AUTO 28010KT 9999 //////CB 18/12 Q1014 BECMG BKN020
17:30
V
18 °C 10 km+ 5.200 ft 300° 300° 10 kt METAR LFOB 011530Z AUTO 30010KT 270V330 9999 FEW036/// SCT043/// BKN052/// //////CB 18/13 Q1014 BECMG BKN020
17:00
V
19 °C 10 km+ 5.000 ft 280° 280° 15 kt METAR LFOB 011500Z AUTO 28015KT 9999 FEW043/// BKN050/// BKN062/// ///TCU 19/11 Q1013 TEMPO 25015G25KT 3000 SHRA BKN020CB
16:30
V
18 °C 10 km+ 5.200 ft 290° 290° 9 kt METAR LFOB 011430Z AUTO 29009KT 9999 FEW039/// SCT045/// BKN052/// //////CB 18/13 Q1013 TEMPO 25015G25KT 3000 SHRA BECMG BKN020
16:00
V
18 °C 10 km+ 7.600 ft 280° 280° 10 kt METAR LFOB 011400Z AUTO 28010KT 9999 FEW042 SCT064 BKN076 18/12 Q1013 TEMPO 25015G25KT 3000 SHRA BKN020TCU
15:30
V
17 °C 10 km+ 14.000 ft 300° 300° 11 kt METAR LFOB 011330Z AUTO 30011KT 9999 SCT037/// SCT046/// BKN140/// ///TCU 17/12 Q1012 TEMPO 25015G25KT 3000 SHRA
15:00
V
17 °C 10 km+ 4.600 ft 280° 280° 15 kt METAR LFOB 011300Z AUTO 28015KT 9999 SCT037 BKN046 BKN056 17/11 Q1012 TEMPO 25015G25KT 3000 SHRA BKN020TCU
14:30
V
19 °C 10 km+ 4.400 ft 270° 270° 17 kt METAR LFOB 011230Z AUTO 27017KT 9999 SCT035 BKN044 BKN076 19/11 Q1012 TEMPO 25015G25KT 3000 SHRA BKN020TCU
14:00
V
19 °C 10 km+ 3.200 ft 270° 270° 15 kt METAR LFOB 011200Z AUTO 27015KT 230V290 9999 BKN032 BKN040 BKN150 19/12 Q1011 TEMPO 25015G25KT 3000 SHRA BKN020TCU
13:30
V
18 °C 10 km+ 3.500 ft 260° 260° 17 kt METAR LFOB 011130Z AUTO 26017KT 230V290 9999 FEW026/// BKN035/// OVC150/// //////TCU 18/13 Q1011 TEMPO 25015G25KT 3000 SHRA
13:00
M
18 °C 10 km+ 2.700 ft 260° 260° 15 kt METAR LFOB 011100Z AUTO 26015KT 9999 BKN027 BKN034 BKN044 18/13 Q1011 TEMPO 25015G25KT 3000 SHRA BKN020TCU
12:30
V
17 °C 10 km+ 3.700 ft 250° 250° 15 kt METAR LFOB 011030Z AUTO 25015KT 9999 FEW021 SCT028 BKN037 17/13 Q1010 TEMPO 25015G25KT 3000 SHRA BKN020TCU
12:00
M
17 °C 10 km+ 2.000 ft 250° 250° 11 kt METAR LFOB 011000Z AUTO 25011KT 220V280 9999 BKN020 BKN027 BKN150 17/13 Q1010 TEMPO 25015G25KT 3000 SHRA BKN020TCU
11:30
M
17 °C 10 km+ 2.000 ft 260° 260° 13 kt METAR LFOB 010930Z AUTO 26013KT 9999 BKN020 BKN025 17/13 Q1010 TEMPO 25015G25KT 3000 SHRA BKN020TCU
11:00
M
16 °C 10 km+ 1.700 ft 260° 260° 12 kt METAR LFOB 010900Z AUTO 26012KT 9999 BKN017 BKN038 BKN064 16/13 Q1009 TEMPO 25015G25KT 3000 SHRA BKN020TCU
10:30
M
16 °C 10 km+ 1.400 ft 260° 260° 12 kt METAR LFOB 010830Z AUTO 26012KT 9999 FEW008 BKN014 16/13 Q1009 TEMPO 25015G25KT 3000 SHRA BKN020TCU
10:00
M
15 °C 10 km+ 1.200 ft 250° 250° 12 kt METAR LFOB 010800Z AUTO 25012KT 9999 BKN012 15/13 Q1009 TEMPO 25015G25KT 3000 SHRA BKN020TCU
09:30
M
14 °C 10 km+ 1.300 ft 260° 260° 12 kt METAR LFOB 010730Z AUTO 26012KT 9999 BKN013 BKN019 14/13 Q1008 TEMPO 25015G25KT 3000 SHRA BKN020TCU
09:00
M
15 °C 10 km+ 1.300 ft 250° 250° 10 kt METAR LFOB 010700Z AUTO 25010KT 9999 BKN013 BKN021 BKN120 15/13 Q1008 TEMPO 25015G25KT 3000 SHRA BKN020TCU
08:30
M
15 °C 10 km+ 1.700 ft 250° 250° 10 kt METAR LFOB 010630Z AUTO 25010KT 9999 FEW012 BKN017 BKN031 15/13 Q1007 TEMPO 25015G25KT 3000 SHRA BKN020TCU
08:00
V
15 °C 10 km+ 3.800 ft 240° 240° 10 kt METAR LFOB 010600Z AUTO 24010KT 9999 SCT013 SCT030 BKN038 15/14 Q1007 NOSIG
07:30
M
15 °C 10 km+ 1.200 ft 240° 240° 8 kt METAR LFOB 010530Z AUTO 24008KT 9999 BKN012 BKN018 OVC120 15/14 Q1006 BECMG SCT030
07:00
V
14 °C 10 km+ 12.000 ft 240° 240° 7 kt METAR LFOB 010500Z AUTO 24007KT 9999 SCT010 SCT018 OVC120 14/13 Q1006 NOSIG
Données plus anciennes

Nous et des tiers suivons ton comportement sur Internet sur notre site Web à l'aide de cookies. Si tu continues, nous supposons que tu acceptes notre politique en matière de cookies. Apprendre plus